Time;durP1;ratioP1;P1;durP2;ratioP2;P2;SDS_P1;SDS_P2;PMS_P1;PMS_P2;Temp;Humidity;BMP_temperature;BMP_pressure;BME280_temperature;BME280_humidity;BME280_pressure;Samples;Min_cycle;Max_cycle;Signal;HPM_P1;HPM_P2
2023/06/04 00:01:52;;;;;;;3.45;1.50;;;;;;;;;;5133432;27;20051;-58
2023/06/04 00:04:19;;;;;;;2.45;1.70;;;;;;;;;;5127680;27;20080;-59
2023/06/04 00:06:45;;;;;;;2.50;1.58;;;;;;;;;;5127034;27;20070;-58
2023/06/04 00:09:12;;;;;;;4.00;1.50;;;;;;;;;;5131104;27;20487;-59
2023/06/04 00:11:40;;;;;;;3.03;1.60;;;;;;;;;;5129499;27;20051;-58
2023/06/04 00:14:07;;;;;;;1.98;1.35;;;;;;;;;;5134215;27;20051;-59
2023/06/04 00:16:35;;;;;;;2.60;1.65;;;;;;;;;;5132452;27;20060;-58
2023/06/04 00:19:02;;;;;;;2.95;1.70;;;;;;;;;;5133759;27;20047;-58
2023/06/04 00:21:29;;;;;;;2.40;1.40;;;;;;;;;;5133163;27;20054;-58
2023/06/04 00:23:56;;;;;;;2.55;1.65;;;;;;;;;;5131774;27;20078;-61
2023/06/04 00:26:23;;;;;;;2.80;1.55;;;;;;;;;;5130142;27;20047;-59
2023/06/04 00:28:51;;;;;;;2.40;1.52;;;;;;;;;;5116681;27;20058;-59
2023/06/04 00:31:18;;;;;;;9.07;1.75;;;;;;;;;;5127793;27;20047;-58
2023/06/04 00:33:45;;;;;;;2.67;1.45;;;;;;;;;;5132926;27;20054;-58
2023/06/04 00:36:11;;;;;;;2.47;1.83;;;;;;;;;;5124432;27;20055;-58
2023/06/04 00:38:38;;;;;;;2.83;1.48;;;;;;;;;;5125293;27;20043;-58
2023/06/04 00:41:05;;;;;;;2.60;1.70;;;;;;;;;;5123366;27;20514;-59
2023/06/04 00:43:33;;;;;;;5.20;1.77;;;;;;;;;;5132715;27;20050;-59
2023/06/04 00:46:02;;;;;;;2.83;1.70;;;;;;;;;;5131920;27;20058;-58
2023/06/04 00:48:30;;;;;;;2.15;1.48;;;;;;;;;;5133064;27;20054;-58
2023/06/04 00:50:57;;;;;;;3.33;1.50;;;;;;;;;;5124824;27;20055;-59
2023/06/04 00:53:25;;;;;;;2.42;1.70;;;;;;;;;;5132602;27;20058;-59
2023/06/04 00:55:52;;;;;;;1.92;1.27;;;;;;;;;;5119055;27;20062;-59
2023/06/04 00:58:20;;;;;;;2.33;1.38;;;;;;;;;;5121372;27;20056;-58
2023/06/04 01:00:47;;;;;;;2.53;1.50;;;;;;;;;;5123851;27;20497;-58
2023/06/04 01:03:18;;;;;;;2.90;1.48;;;;;;;;;;5133456;27;20432;-59
2023/06/04 01:05:49;;;;;;;2.67;1.30;;;;;;;;;;5127817;27;20051;-59
2023/06/04 01:08:16;;;;;;;3.47;1.55;;;;;;;;;;5130267;27;20051;-58
2023/06/04 01:10:51;;;;;;;2.78;1.50;;;;;;;;;;5129085;27;20051;-58
2023/06/04 01:13:18;;;;;;;3.45;1.75;;;;;;;;;;5130137;27;20047;-58
2023/06/04 01:15:44;;;;;;;3.80;1.73;;;;;;;;;;5130431;27;20054;-58
2023/06/04 01:18:13;;;;;;;3.33;1.48;;;;;;;;;;5131507;27;20472;-58
2023/06/04 01:20:43;;;;;;;3.17;1.50;;;;;;;;;;5132639;27;20047;-58
2023/06/04 01:23:27;;;;;;;3.05;1.67;;;;;;;;;;5125136;27;20129;-58
2023/06/04 01:25:57;;;;;;;3.90;1.83;;;;;;;;;;5124315;27;20052;-58
2023/06/04 01:28:24;;;;;;;3.08;1.60;;;;;;;;;;5131209;27;20047;-58
2023/06/04 01:30:51;;;;;;;3.40;1.88;;;;;;;;;;5129311;27;20058;-58
2023/06/04 01:33:19;;;;;;;2.55;1.58;;;;;;;;;;5132960;27;20054;-58
2023/06/04 01:35:47;;;;;;;4.72;1.88;;;;;;;;;;5125792;27;20117;-59
2023/06/04 01:38:14;;;;;;;3.80;1.50;;;;;;;;;;5127643;28;20047;-58
2023/06/04 01:40:41;;;;;;;2.80;1.58;;;;;;;;;;5124577;27;20065;-58
2023/06/04 01:43:08;;;;;;;3.83;1.45;;;;;;;;;;5131805;28;20051;-58
2023/06/04 01:45:35;;;;;;;4.30;1.70;;;;;;;;;;5132381;28;20066;-58
2023/06/04 01:48:03;;;;;;;3.42;1.85;;;;;;;;;;5131933;28;20120;-58
2023/06/04 01:50:30;;;;;;;3.08;1.52;;;;;;;;;;5131826;28;20058;-58
2023/06/04 01:52:58;;;;;;;2.25;1.63;;;;;;;;;;5132474;28;20051;-58
2023/06/04 01:55:27;;;;;;;2.10;1.52;;;;;;;;;;5128500;27;20047;-58
2023/06/04 01:57:54;;;;;;;2.00;1.23;;;;;;;;;;5131393;28;20051;-58
2023/06/04 02:00:21;;;;;;;2.40;1.63;;;;;;;;;;5122710;28;20051;-59
2023/06/04 02:02:48;;;;;;;4.50;2.20;;;;;;;;;;5131904;28;20051;-58
2023/06/04 02:05:15;;;;;;;2.55;2.00;;;;;;;;;;5131852;28;20073;-58
2023/06/04 02:07:44;;;;;;;3.42;1.67;;;;;;;;;;5115356;28;20051;-59
2023/06/04 02:10:13;;;;;;;2.58;1.55;;;;;;;;;;5125549;27;20051;-58
2023/06/04 02:12:40;;;;;;;2.78;1.83;;;;;;;;;;5132294;27;20380;-59
2023/06/04 02:15:08;;;;;;;2.92;1.90;;;;;;;;;;5128036;28;20051;-59
2023/06/04 02:17:37;;;;;;;2.80;2.00;;;;;;;;;;5131449;28;20047;-59
2023/06/04 02:20:05;;;;;;;4.43;1.75;;;;;;;;;;5135606;27;20047;-59
2023/06/04 02:22:32;;;;;;;3.05;2.10;;;;;;;;;;5127732;27;20473;-59
2023/06/04 02:24:59;;;;;;;3.35;1.90;;;;;;;;;;5129820;27;20059;-59
2023/06/04 02:27:27;;;;;;;4.03;1.80;;;;;;;;;;5135173;27;20055;-58
2023/06/04 02:29:54;;;;;;;3.63;2.10;;;;;;;;;;5135075;27;20478;-59
2023/06/04 02:32:21;;;;;;;2.70;1.88;;;;;;;;;;5133736;27;20054;-58
2023/06/04 02:34:48;;;;;;;2.95;2.33;;;;;;;;;;5136380;27;20058;-59
2023/06/04 02:37:15;;;;;;;3.60;2.20;;;;;;;;;;5126481;27;20418;-59
2023/06/04 02:39:42;;;;;;;4.60;2.10;;;;;;;;;;5130244;27;20047;-59
2023/06/04 02:42:09;;;;;;;4.72;2.10;;;;;;;;;;5134617;27;20051;-59
2023/06/04 02:44:37;;;;;;;4.05;2.10;;;;;;;;;;5135341;27;20062;-58
2023/06/04 02:47:04;;;;;;;3.10;1.73;;;;;;;;;;5135189;27;20043;-59
2023/06/04 02:49:31;;;;;;;2.50;1.77;;;;;;;;;;5118884;27;20051;-59
2023/06/04 02:51:58;;;;;;;2.72;1.92;;;;;;;;;;5133063;27;20043;-59
2023/06/04 02:54:27;;;;;;;3.47;1.88;;;;;;;;;;5128326;27;20630;-58
2023/06/04 02:56:54;;;;;;;3.45;1.65;;;;;;;;;;5134943;27;20396;-58
2023/06/04 02:59:21;;;;;;;3.35;1.95;;;;;;;;;;5134558;27;20053;-58
2023/06/04 03:01:49;;;;;;;2.65;1.63;;;;;;;;;;5129995;27;20047;-59
2023/06/04 03:04:17;;;;;;;3.17;1.77;;;;;;;;;;5130340;27;20058;-58
2023/06/04 03:06:46;;;;;;;2.58;1.80;;;;;;;;;;5131885;27;20059;-59
2023/06/04 03:09:13;;;;;;;2.28;1.50;;;;;;;;;;5131950;27;20056;-58
2023/06/04 03:11:40;;;;;;;4.05;1.85;;;;;;;;;;5135776;27;20043;-58
2023/06/04 03:14:06;;;;;;;4.13;2.00;;;;;;;;;;5134294;27;20051;-59
2023/06/04 03:16:33;;;;;;;2.85;1.80;;;;;;;;;;5133653;27;20047;-58
2023/06/04 03:19:02;;;;;;;3.30;1.98;;;;;;;;;;5135040;27;20051;-58
2023/06/04 03:21:29;;;;;;;3.00;2.00;;;;;;;;;;5134186;27;20039;-58
2023/06/04 03:23:55;;;;;;;3.53;1.98;;;;;;;;;;5130627;27;20056;-59
2023/06/04 03:26:22;;;;;;;3.17;2.10;;;;;;;;;;5127162;27;20067;-58
2023/06/04 03:28:49;;;;;;;3.33;2.40;;;;;;;;;;5133428;27;20054;-59
2023/06/04 03:31:16;;;;;;;2.58;1.77;;;;;;;;;;5131437;27;20051;-58
2023/06/04 03:33:43;;;;;;;2.90;2.22;;;;;;;;;;5130916;27;20467;-59
2023/06/04 03:36:11;;;;;;;3.55;2.20;;;;;;;;;;5133319;27;20051;-58
2023/06/04 03:38:38;;;;;;;3.47;2.00;;;;;;;;;;5130236;27;20058;-58
2023/06/04 03:41:04;;;;;;;3.40;1.70;;;;;;;;;;5126827;27;20503;-58
2023/06/04 03:43:31;;;;;;;5.25;2.28;;;;;;;;;;5124066;27;20056;-58
2023/06/04 03:45:58;;;;;;;5.72;2.17;;;;;;;;;;5128408;27;20054;-58
2023/06/04 03:48:25;;;;;;;2.45;1.85;;;;;;;;;;5122724;27;20488;-58
2023/06/04 03:50:52;;;;;;;4.03;1.85;;;;;;;;;;5121930;27;20153;-58
2023/06/04 03:53:20;;;;;;;3.45;2.10;;;;;;;;;;5127909;27;20054;-58
2023/06/04 03:55:47;;;;;;;4.63;2.35;;;;;;;;;;5123341;27;20055;-58
2023/06/04 03:58:14;;;;;;;3.03;1.92;;;;;;;;;;5128106;27;20051;-58
2023/06/04 04:00:41;;;;;;;2.88;1.80;;;;;;;;;;5119558;27;20054;-59
2023/06/04 04:03:09;;;;;;;4.93;1.92;;;;;;;;;;5127096;27;20054;-58
2023/06/04 04:05:36;;;;;;;4.32;2.20;;;;;;;;;;5125539;27;20047;-59
2023/06/04 04:08:03;;;;;;;3.05;1.92;;;;;;;;;;5113849;28;20060;-58
2023/06/04 04:10:32;;;;;;;3.83;2.05;;;;;;;;;;5120770;27;20048;-58
2023/06/04 04:12:58;;;;;;;3.78;2.10;;;;;;;;;;5130116;27;20062;-58
2023/06/04 04:15:25;;;;;;;3.30;1.90;;;;;;;;;;5115634;27;20510;-58
2023/06/04 04:17:52;;;;;;;5.93;1.80;;;;;;;;;;5116862;27;20051;-58
2023/06/04 04:20:19;;;;;;;2.95;2.00;;;;;;;;;;5132961;27;20047;-58
2023/06/04 04:22:46;;;;;;;5.65;1.90;;;;;;;;;;5126141;27;20051;-59
2023/06/04 04:25:12;;;;;;;3.78;2.30;;;;;;;;;;5126117;27;20070;-59
2023/06/04 04:27:41;;;;;;;3.45;2.00;;;;;;;;;;5133628;27;20051;-59
2023/06/04 04:30:09;;;;;;;2.85;1.90;;;;;;;;;;5131579;27;20058;-59
2023/06/04 04:32:38;;;;;;;3.58;2.17;;;;;;;;;;5132758;27;20047;-59
2023/06/04 04:35:05;;;;;;;2.83;1.90;;;;;;;;;;5133027;27;20058;-59
2023/06/04 04:37:32;;;;;;;3.13;1.90;;;;;;;;;;5125639;27;20058;-59
2023/06/04 04:39:59;;;;;;;3.95;2.10;;;;;;;;;;5133570;27;20051;-59
2023/06/04 04:42:26;;;;;;;3.97;2.20;;;;;;;;;;5132808;27;20043;-59
2023/06/04 04:44:54;;;;;;;3.30;2.20;;;;;;;;;;5135045;27;20051;-59
2023/06/04 04:47:21;;;;;;;2.47;1.77;;;;;;;;;;5118414;27;20047;-59
2023/06/04 04:49:49;;;;;;;3.17;2.20;;;;;;;;;;5131487;27;20054;-59
2023/06/04 04:52:15;;;;;;;4.13;2.30;;;;;;;;;;5134134;27;20043;-59
2023/06/04 04:54:42;;;;;;;3.50;1.90;;;;;;;;;;5133179;27;20411;-59
2023/06/04 04:57:09;;;;;;;2.85;2.10;;;;;;;;;;5133914;27;20063;-59
2023/06/04 04:59:36;;;;;;;2.95;2.17;;;;;;;;;;5134141;27;20050;-59
2023/06/04 05:02:04;;;;;;;3.58;2.45;;;;;;;;;;5131441;27;20050;-59
2023/06/04 05:04:31;;;;;;;4.30;2.30;;;;;;;;;;5130978;27;20066;-59
2023/06/04 05:06:58;;;;;;;2.92;2.35;;;;;;;;;;5133596;27;20051;-59
2023/06/04 05:09:25;;;;;;;3.55;2.60;;;;;;;;;;5133020;27;20047;-59
2023/06/04 05:11:51;;;;;;;4.05;2.55;;;;;;;;;;5133762;27;20046;-59
2023/06/04 05:14:18;;;;;;;4.80;2.33;;;;;;;;;;5134053;27;20514;-59
2023/06/04 05:16:45;;;;;;;3.85;2.80;;;;;;;;;;5133861;27;20054;-59
2023/06/04 05:19:13;;;;;;;3.58;2.50;;;;;;;;;;5133944;27;20058;-59
2023/06/04 05:21:40;;;;;;;2.78;2.00;;;;;;;;;;5132918;27;20047;-59
2023/06/04 05:24:07;;;;;;;3.72;2.33;;;;;;;;;;5131344;27;20055;-59
2023/06/04 05:26:34;;;;;;;2.55;2.03;;;;;;;;;;5130116;27;20058;-59
2023/06/04 05:29:01;;;;;;;3.72;2.40;;;;;;;;;;5130920;27;20051;-59
2023/06/04 05:31:28;;;;;;;3.85;2.40;;;;;;;;;;5130004;27;20043;-59
2023/06/04 05:33:55;;;;;;;3.45;2.53;;;;;;;;;;5129516;27;20043;-59
2023/06/04 05:36:23;;;;;;;15.90;2.60;;;;;;;;;;5128192;27;20458;-58
2023/06/04 05:38:56;;;;;;;3.55;2.53;;;;;;;;;;5133041;27;20051;-59
2023/06/04 05:41:24;;;;;;;5.10;2.55;;;;;;;;;;5131219;28;20047;-60
2023/06/04 05:43:50;;;;;;;3.55;2.47;;;;;;;;;;5126785;28;20054;-60
2023/06/04 05:46:17;;;;;;;7.93;2.83;;;;;;;;;;5132607;28;20051;-59
2023/06/04 05:48:44;;;;;;;3.97;2.92;;;;;;;;;;5133839;28;20062;-59
2023/06/04 05:51:11;;;;;;;3.92;2.50;;;;;;;;;;5133567;28;20066;-59
2023/06/04 05:53:39;;;;;;;3.53;2.20;;;;;;;;;;5130638;27;20047;-59
2023/06/04 05:56:06;;;;;;;3.55;2.67;;;;;;;;;;5135344;27;20050;-60
2023/06/04 05:58:34;;;;;;;4.70;2.78;;;;;;;;;;5135186;27;20395;-59
2023/06/04 06:01:01;;;;;;;5.28;3.00;;;;;;;;;;5136254;27;20051;-59
2023/06/04 06:03:28;;;;;;;3.65;2.85;;;;;;;;;;5129321;27;20051;-60
2023/06/04 06:05:57;;;;;;;3.90;2.78;;;;;;;;;;5135411;27;20051;-60
2023/06/04 06:08:23;;;;;;;5.00;2.70;;;;;;;;;;5135848;27;20046;-59
2023/06/04 06:10:51;;;;;;;4.25;2.78;;;;;;;;;;5137608;27;20460;-59
2023/06/04 06:13:18;;;;;;;5.13;3.13;;;;;;;;;;5134361;27;20055;-60
2023/06/04 06:15:46;;;;;;;6.50;3.13;;;;;;;;;;5133138;27;20526;-59
2023/06/04 06:18:13;;;;;;;3.80;2.83;;;;;;;;;;5137462;27;20066;-59
2023/06/04 06:20:41;;;;;;;4.40;2.80;;;;;;;;;;5136403;27;20055;-59
2023/06/04 06:23:07;;;;;;;4.15;2.80;;;;;;;;;;5135016;27;20399;-59
2023/06/04 06:25:34;;;;;;;2.75;2.30;;;;;;;;;;5135309;27;20479;-59
2023/06/04 06:28:02;;;;;;;3.70;2.95;;;;;;;;;;5132003;27;20051;-59
2023/06/04 06:30:29;;;;;;;3.63;2.70;;;;;;;;;;5125831;27;20479;-59
2023/06/04 06:32:56;;;;;;;4.63;2.47;;;;;;;;;;5136738;27;20063;-59
2023/06/04 06:35:23;;;;;;;3.60;2.67;;;;;;;;;;5134975;27;20063;-59
2023/06/04 06:37:50;;;;;;;3.72;2.60;;;;;;;;;;5134702;27;20055;-59
2023/06/04 06:40:17;;;;;;;4.68;3.47;;;;;;;;;;5134210;27;20051;-59
2023/06/04 06:42:43;;;;;;;5.03;2.78;;;;;;;;;;5135736;27;20051;-59
2023/06/04 06:45:12;;;;;;;3.60;2.58;;;;;;;;;;5133287;27;20054;-59
2023/06/04 06:47:39;;;;;;;4.90;2.90;;;;;;;;;;5135224;27;20055;-59
2023/06/04 06:50:06;;;;;;;6.40;3.05;;;;;;;;;;5135539;27;20055;-60
2023/06/04 06:52:33;;;;;;;4.22;2.90;;;;;;;;;;5135074;27;20048;-59
2023/06/04 06:55:00;;;;;;;4.38;2.55;;;;;;;;;;5131333;27;20058;-59
2023/06/04 06:57:27;;;;;;;4.68;2.30;;;;;;;;;;5135514;27;20513;-59
2023/06/04 06:59:54;;;;;;;3.05;2.25;;;;;;;;;;5134443;27;20051;-59
2023/06/04 07:02:22;;;;;;;3.00;2.17;;;;;;;;;;5130386;27;20047;-59
2023/06/04 07:04:49;;;;;;;4.50;2.13;;;;;;;;;;5125305;27;20047;-60
2023/06/04 07:07:16;;;;;;;3.90;2.80;;;;;;;;;;5132015;27;20050;-59
2023/06/04 07:09:43;;;;;;;4.80;2.08;;;;;;;;;;5133049;27;20046;-58
2023/06/04 07:12:10;;;;;;;3.60;2.22;;;;;;;;;;5133181;27;20047;-59
2023/06/04 07:14:37;;;;;;;2.70;1.90;;;;;;;;;;5135149;27;20051;-59
2023/06/04 07:17:03;;;;;;;2.80;1.92;;;;;;;;;;5134013;27;20522;-60
2023/06/04 07:19:32;;;;;;;2.83;2.05;;;;;;;;;;5136285;27;20487;-59
2023/06/04 07:21:58;;;;;;;2.90;1.92;;;;;;;;;;5133708;27;20047;-58
2023/06/04 07:24:25;;;;;;;3.92;2.00;;;;;;;;;;5134879;27;20074;-58
2023/06/04 07:26:52;;;;;;;3.10;1.75;;;;;;;;;;5133946;27;20047;-59
2023/06/04 07:29:19;;;;;;;3.28;1.60;;;;;;;;;;5134182;27;20051;-60
2023/06/04 07:31:46;;;;;;;2.63;1.70;;;;;;;;;;5134298;27;20047;-59
2023/06/04 07:34:13;;;;;;;2.35;1.75;;;;;;;;;;5133391;27;20047;-59
2023/06/04 07:36:41;;;;;;;2.85;1.88;;;;;;;;;;5131714;27;20070;-59
2023/06/04 07:39:08;;;;;;;4.82;1.95;;;;;;;;;;5130813;27;20047;-59
2023/06/04 07:41:35;;;;;;;4.20;2.28;;;;;;;;;;5131156;27;20499;-59
2023/06/04 07:44:01;;;;;;;3.30;1.75;;;;;;;;;;5131919;27;20510;-58
2023/06/04 07:46:28;;;;;;;4.50;2.10;;;;;;;;;;5131143;27;20047;-59
2023/06/04 07:48:55;;;;;;;4.32;2.05;;;;;;;;;;5133879;27;20506;-59
2023/06/04 07:51:22;;;;;;;3.33;1.92;;;;;;;;;;5133677;27;20047;-59
2023/06/04 07:53:50;;;;;;;3.17;2.03;;;;;;;;;;5131631;27;20074;-59
2023/06/04 07:56:17;;;;;;;4.28;2.03;;;;;;;;;;5132576;27;20507;-59
2023/06/04 07:58:45;;;;;;;3.42;2.30;;;;;;;;;;5132196;27;20062;-59
2023/06/04 08:01:11;;;;;;;2.53;1.95;;;;;;;;;;5128269;27;20043;-59
2023/06/04 08:03:38;;;;;;;3.25;1.70;;;;;;;;;;5132170;27;20050;-59
2023/06/04 08:06:06;;;;;;;2.35;1.75;;;;;;;;;;5132706;27;20047;-59
2023/06/04 08:08:33;;;;;;;3.47;2.08;;;;;;;;;;5128914;27;20415;-59
2023/06/04 08:11:02;;;;;;;3.72;2.00;;;;;;;;;;5131325;27;20051;-59
2023/06/04 08:13:29;;;;;;;3.58;2.00;;;;;;;;;;5130540;27;20054;-59
2023/06/04 08:15:56;;;;;;;3.25;2.00;;;;;;;;;;5129807;27;20051;-59
2023/06/04 08:18:22;;;;;;;2.67;2.00;;;;;;;;;;5129679;27;20058;-58
2023/06/04 08:20:49;;;;;;;2.58;2.00;;;;;;;;;;5129103;27;20062;-58
2023/06/04 08:23:16;;;;;;;4.10;2.10;;;;;;;;;;5132514;27;20043;-58
2023/06/04 08:25:43;;;;;;;4.00;2.03;;;;;;;;;;5135753;27;20054;-58
2023/06/04 08:28:11;;;;;;;3.17;2.10;;;;;;;;;;5128620;27;20047;-58
2023/06/04 08:30:38;;;;;;;2.90;2.05;;;;;;;;;;5131459;27;20058;-58
2023/06/04 08:33:05;;;;;;;5.35;2.65;;;;;;;;;;5132903;27;20062;-59
2023/06/04 08:35:31;;;;;;;3.55;2.10;;;;;;;;;;5133574;27;20047;-58
2023/06/04 08:37:58;;;;;;;4.20;1.90;;;;;;;;;;5131906;27;20499;-59
2023/06/04 08:40:25;;;;;;;5.85;2.10;;;;;;;;;;5132560;27;20055;-58
2023/06/04 08:42:57;;;;;;;4.43;2.00;;;;;;;;;;5133214;27;20043;-58
2023/06/04 08:45:26;;;;;;;3.20;2.20;;;;;;;;;;5133362;27;20549;-59
2023/06/04 08:47:54;;;;;;;4.53;2.22;;;;;;;;;;5134499;27;20395;-58
2023/06/04 08:50:22;;;;;;;5.20;3.45;;;;;;;;;;5134645;27;20043;-59
2023/06/04 08:52:49;;;;;;;;;;;;;;;;;;5133238;27;20047;-58
2023/06/04 08:55:15;;;;;;;4.40;2.20;;;;;;;;;;5132785;27;19923;-58
2023/06/04 08:57:42;;;;;;;2.85;2.35;;;;;;;;;;5134315;27;20380;-58
2023/06/04 09:00:09;;;;;;;2.65;2.25;;;;;;;;;;5133858;27;20073;-59
2023/06/04 09:02:38;;;;;;;2.43;2.20;;;;;;;;;;5134436;27;20067;-59
2023/06/04 09:05:06;;;;;;;4.43;2.10;;;;;;;;;;5133831;27;20987;-58
2023/06/04 09:07:36;;;;;;;3.60;1.98;;;;;;;;;;5133688;27;20055;-58
2023/06/04 09:10:03;;;;;;;4.53;3.70;;;;;;;;;;5132198;27;20047;-59
2023/06/04 09:12:30;;;;;;;5.70;2.80;;;;;;;;;;5133979;27;20051;-60
2023/06/04 09:14:57;;;;;;;2.70;2.40;;;;;;;;;;5134143;27;20058;-58
2023/06/04 09:17:24;;;;;;;3.38;2.13;;;;;;;;;;5134011;27;20047;-59
2023/06/04 09:19:52;;;;;;;3.00;2.10;;;;;;;;;;5133740;27;20050;-58
2023/06/04 09:22:19;;;;;;;4.63;3.08;;;;;;;;;;5133558;27;20062;-58
2023/06/04 09:24:47;;;;;;;2.60;2.40;;;;;;;;;;5131688;27;20062;-58
2023/06/04 09:27:14;;;;;;;;;;;;;;;;;;5133672;27;20434;-58
2023/06/04 09:29:40;;;;;;;2.25;2.05;;;;;;;;;;5132811;27;19920;-58
2023/06/04 09:32:07;;;;;;;3.63;2.30;;;;;;;;;;5133231;27;20078;-59
2023/06/04 09:34:35;;;;;;;3.90;2.28;;;;;;;;;;5131854;27;20058;-59
2023/06/04 09:37:03;;;;;;;4.32;2.45;;;;;;;;;;5133670;27;20058;-58
2023/06/04 09:39:30;;;;;;;4.65;2.70;;;;;;;;;;5132857;27;20054;-59
2023/06/04 09:41:59;;;;;;;3.03;2.20;;;;;;;;;;5133342;28;20055;-59
2023/06/04 09:44:26;;;;;;;4.22;2.10;;;;;;;;;;5133182;28;20058;-59
2023/06/04 09:46:56;;;;;;;4.80;2.13;;;;;;;;;;5133684;28;20047;-59
2023/06/04 09:49:23;;;;;;;5.95;2.17;;;;;;;;;;5133721;28;20488;-59
2023/06/04 09:51:49;;;;;;;4.13;2.20;;;;;;;;;;5133668;28;20062;-59
2023/06/04 09:54:18;;;;;;;5.60;2.30;;;;;;;;;;5132326;27;20415;-61
2023/06/04 09:56:45;;;;;;;4.88;2.17;;;;;;;;;;5133299;28;20062;-59
2023/06/04 09:59:12;;;;;;;3.13;2.20;;;;;;;;;;5133424;28;20059;-60
2023/06/04 10:01:39;;;;;;;;;;;;;;;;;;5133929;28;20415;-59
2023/06/04 10:04:07;;;;;;;4.20;2.08;;;;;;;;;;5133835;28;19919;-59
2023/06/04 10:06:35;;;;;;;3.63;1.90;;;;;;;;;;5130446;27;20404;-60
2023/06/04 10:09:05;;;;;;;2.85;2.20;;;;;;;;;;5132252;27;20058;-59
2023/06/04 10:11:35;;;;;;;8.93;2.42;;;;;;;;;;5132777;28;20047;-59
2023/06/04 10:14:04;;;;;;;4.15;1.98;;;;;;;;;;5133297;28;20502;-59
2023/06/04 10:16:31;;;;;;;4.32;2.30;;;;;;;;;;5132747;28;20047;-60
2023/06/04 10:18:59;;;;;;;4.03;2.25;;;;;;;;;;5133964;28;20070;-59
2023/06/04 10:21:26;;;;;;;3.28;1.88;;;;;;;;;;5133175;28;20510;-60
2023/06/04 10:23:53;;;;;;;2.35;1.90;;;;;;;;;;5130041;27;20483;-59
2023/06/04 10:26:21;;;;;;;4.05;2.10;;;;;;;;;;5133177;28;20058;-60
2023/06/04 10:28:50;;;;;;;2.88;1.90;;;;;;;;;;5133030;28;20058;-59
2023/06/04 10:31:17;;;;;;;2.88;2.05;;;;;;;;;;5133214;28;20059;-59
2023/06/04 10:33:44;;;;;;;3.67;1.90;;;;;;;;;;5133322;28;20490;-60
2023/06/04 10:36:18;;;;;;;2.60;2.10;;;;;;;;;;5133136;28;20395;-60
2023/06/04 10:38:48;;;;;;;3.00;1.85;;;;;;;;;;5130105;27;20066;-59
2023/06/04 10:41:15;;;;;;;4.25;1.90;;;;;;;;;;5135738;27;20511;-59
2023/06/04 10:43:42;;;;;;;3.47;1.83;;;;;;;;;;5136912;27;20062;-60
2023/06/04 10:46:14;;;;;;;4.10;1.88;;;;;;;;;;5136789;27;20058;-59
2023/06/04 10:48:47;;;;;;;2.15;1.65;;;;;;;;;;5136767;27;20051;-59
2023/06/04 10:51:14;;;;;;;2.45;1.83;;;;;;;;;;5136297;27;20059;-59
2023/06/04 10:53:41;;;;;;;3.45;1.60;;;;;;;;;;5135817;27;20479;-60
2023/06/04 10:56:08;;;;;;;3.40;1.85;;;;;;;;;;5134014;27;20051;-60
2023/06/04 10:58:35;;;;;;;5.75;2.08;;;;;;;;;;5136798;27;20058;-60
2023/06/04 11:01:02;;;;;;;3.17;1.80;;;;;;;;;;5136862;27;20051;-60
2023/06/04 11:03:37;;;;;;;2.75;1.65;;;;;;;;;;5136646;27;20403;-60
2023/06/04 11:06:04;;;;;;;3.17;1.60;;;;;;;;;;5136194;27;20054;-60
2023/06/04 11:08:31;;;;;;;2.75;1.52;;;;;;;;;;5136739;27;20051;-59
2023/06/04 11:10:57;;;;;;;;;;;;;;;;;;5130316;27;20055;-60
2023/06/04 11:13:25;;;;;;;2.53;1.70;;;;;;;;;;5136398;27;19927;-60
2023/06/04 11:15:52;;;;;;;2.17;1.73;;;;;;;;;;5133819;27;20055;-59
2023/06/04 11:18:20;;;;;;;3.47;1.90;;;;;;;;;;5136058;27;20054;-60
2023/06/04 11:20:50;;;;;;;3.20;1.65;;;;;;;;;;5136119;27;20526;-60
2023/06/04 11:23:17;;;;;;;3.03;1.70;;;;;;;;;;5135481;27;20066;-63
2023/06/04 11:25:45;;;;;;;3.10;1.60;;;;;;;;;;5133963;27;20054;-62
2023/06/04 11:28:15;;;;;;;2.67;1.70;;;;;;;;;;5135828;27;20051;-62
2023/06/04 11:30:42;;;;;;;2.85;1.60;;;;;;;;;;5135860;27;20055;-62
2023/06/04 11:33:09;;;;;;;3.05;1.88;;;;;;;;;;5136097;27;20055;-60
2023/06/04 11:35:40;;;;;;;3.35;1.52;;;;;;;;;;5134628;27;20415;-60
2023/06/04 11:38:09;;;;;;;3.70;1.80;;;;;;;;;;5135706;27;20047;-59
2023/06/04 11:40:36;;;;;;;2.50;1.58;;;;;;;;;;5135554;27;20059;-59
2023/06/04 11:43:03;;;;;;;3.25;1.67;;;;;;;;;;5135722;27;20051;-59
2023/06/04 11:45:30;;;;;;;2.65;1.38;;;;;;;;;;5135856;27;20407;-61
2023/06/04 11:47:57;;;;;;;4.55;1.35;;;;;;;;;;5135780;27;20070;-62
2023/06/04 11:50:24;;;;;;;;;;;;;;;;;;5135841;27;20062;-61
2023/06/04 11:52:53;;;;;;;3.63;1.50;;;;;;;;;;5132187;27;19927;-61
2023/06/04 11:55:21;;;;;;;4.55;1.58;;;;;;;;;;5135250;27;20074;-61
2023/06/04 11:57:49;;;;;;;2.28;1.30;;;;;;;;;;5135540;27;20051;-61
2023/06/04 12:00:17;;;;;;;2.20;1.50;;;;;;;;;;5135514;27;20051;-62
2023/06/04 12:02:51;;;;;;;3.50;1.95;;;;;;;;;;5135206;27;20055;-61
2023/06/04 12:05:19;;;;;;;2.67;1.50;;;;;;;;;;5135159;27;20051;-61
2023/06/04 12:07:47;;;;;;;3.42;1.70;;;;;;;;;;5133678;27;20046;-61
2023/06/04 12:10:14;;;;;;;3.42;1.50;;;;;;;;;;5134943;27;20051;-62
2023/06/04 12:12:41;;;;;;;;;;;;;;;;;;5135514;27;20055;-61
2023/06/04 12:15:10;;;;;;;2.88;1.50;;;;;;;;;;5135085;27;19923;-61
2023/06/04 12:17:37;;;;;;;1.70;1.20;;;;;;;;;;5135096;27;20100;-61
2023/06/04 12:20:05;;;;;;;3.80;1.40;;;;;;;;;;5135092;27;20051;-62
2023/06/04 12:22:32;;;;;;;2.20;1.48;;;;;;;;;;5133863;27;20048;-62
2023/06/04 12:25:02;;;;;;;2.60;1.63;;;;;;;;;;5134456;27;20047;-62
2023/06/04 12:27:29;;;;;;;2.22;1.50;;;;;;;;;;5114349;28;20047;-62
2023/06/04 12:29:57;;;;;;;2.50;1.63;;;;;;;;;;5114034;28;20055;-61
2023/06/04 12:32:25;;;;;;;4.07;2.58;;;;;;;;;;5130223;27;20051;-61
2023/06/04 12:34:52;;;;;;;3.05;1.50;;;;;;;;;;5134685;27;20070;-62
2023/06/04 12:37:19;;;;;;;6.80;1.52;;;;;;;;;;5133900;27;20055;-62
2023/06/04 12:39:46;;;;;;;2.72;1.70;;;;;;;;;;5132550;27;20047;-61
2023/06/04 12:42:13;;;;;;;2.27;1.50;;;;;;;;;;5134365;27;20153;-61
2023/06/04 12:44:40;;;;;;;2.83;1.30;;;;;;;;;;5134555;27;20074;-62
2023/06/04 12:47:07;;;;;;;2.88;1.88;;;;;;;;;;5134610;27;20480;-64
2023/06/04 12:49:35;;;;;;;2.13;1.43;;;;;;;;;;5134098;27;20051;-62
2023/06/04 12:52:02;;;;;;;4.30;1.38;;;;;;;;;;5134114;27;20043;-62
2023/06/04 12:54:29;;;;;;;2.05;1.33;;;;;;;;;;5133379;27;20054;-62
2023/06/04 12:56:57;;;;;;;4.10;1.42;;;;;;;;;;5133875;27;20055;-62
2023/06/04 12:59:24;;;;;;;3.08;1.55;;;;;;;;;;5134233;27;20051;-62
2023/06/04 13:01:51;;;;;;;2.57;1.40;;;;;;;;;;5133989;27;20055;-62
2023/06/04 13:04:17;;;;;;;2.47;1.77;;;;;;;;;;5133727;27;20054;-62
2023/06/04 13:06:46;;;;;;;2.97;1.40;;;;;;;;;;5133707;27;20050;-62
2023/06/04 13:09:13;;;;;;;3.35;1.58;;;;;;;;;;5132560;27;20054;-61
2023/06/04 13:11:41;;;;;;;3.55;1.20;;;;;;;;;;5133675;27;20051;-61
2023/06/04 13:14:08;;;;;;;2.47;1.42;;;;;;;;;;5133116;27;20415;-61
2023/06/04 13:16:35;;;;;;;2.80;1.40;;;;;;;;;;5133750;27;20051;-62
2023/06/04 13:19:02;;;;;;;3.17;1.65;;;;;;;;;;5133781;27;20051;-61
2023/06/04 13:21:29;;;;;;;3.03;1.50;;;;;;;;;;5133623;27;20415;-61
2023/06/04 13:23:57;;;;;;;2.53;1.70;;;;;;;;;;5133262;27;20051;-62
2023/06/04 13:26:24;;;;;;;3.40;1.67;;;;;;;;;;5131685;27;20047;-61
2023/06/04 13:28:51;;;;;;;2.85;1.42;;;;;;;;;;5133721;27;20434;-61
2023/06/04 13:31:17;;;;;;;1.80;1.33;;;;;;;;;;5133902;27;20046;-61
2023/06/04 13:33:44;;;;;;;2.00;1.50;;;;;;;;;;5131938;27;20051;-61
2023/06/04 13:36:11;;;;;;;2.30;1.52;;;;;;;;;;5139253;27;20046;-61
2023/06/04 13:38:38;;;;;;;2.13;1.30;;;;;;;;;;5146225;27;20050;-61
2023/06/04 13:41:06;;;;;;;2.13;1.60;;;;;;;;;;5133619;27;20051;-61
2023/06/04 13:43:33;;;;;;;2.17;1.58;;;;;;;;;;5129920;27;20475;-61
2023/06/04 13:46:03;;;;;;;3.30;1.40;;;;;;;;;;5123260;27;20055;-61
2023/06/04 13:48:30;;;;;;;3.42;1.42;;;;;;;;;;5132353;27;20058;-61
2023/06/04 13:50:56;;;;;;;1.80;1.20;;;;;;;;;;5125977;28;20066;-61
2023/06/04 13:53:23;;;;;;;1.75;1.17;;;;;;;;;;5129348;28;20376;-61
2023/06/04 13:55:57;;;;;;;2.60;1.58;;;;;;;;;;5128365;27;20055;-60
2023/06/04 13:58:25;;;;;;;2.08;1.30;;;;;;;;;;5129360;28;20407;-61
2023/06/04 14:00:52;;;;;;;2.85;1.30;;;;;;;;;;5125569;28;20051;-61
2023/06/04 14:03:19;;;;;;;2.75;1.30;;;;;;;;;;5129520;27;20067;-61
2023/06/04 14:05:46;;;;;;;2.58;1.27;;;;;;;;;;5126489;27;20076;-61
2023/06/04 14:08:13;;;;;;;2.15;1.45;;;;;;;;;;5132479;27;20047;-61
2023/06/04 14:10:42;;;;;;;3.70;1.67;;;;;;;;;;5127874;27;20054;-60
2023/06/04 14:13:09;;;;;;;3.53;1.40;;;;;;;;;;5128341;27;20051;-60
2023/06/04 14:15:37;;;;;;;2.80;1.95;;;;;;;;;;5130523;27;20419;-60
2023/06/04 14:18:04;;;;;;;2.83;1.90;;;;;;;;;;5134203;27;20054;-60
2023/06/04 14:20:31;;;;;;;1.92;1.45;;;;;;;;;;5134690;27;20480;-60
2023/06/04 14:22:59;;;;;;;3.53;1.60;;;;;;;;;;5136982;27;20058;-60
2023/06/04 14:25:26;;;;;;;3.00;2.10;;;;;;;;;;5136636;27;20051;-60
2023/06/04 14:27:53;;;;;;;3.45;1.75;;;;;;;;;;5132985;27;20054;-60
2023/06/04 14:30:20;;;;;;;2.42;1.40;;;;;;;;;;5134034;27;20051;-60
2023/06/04 14:32:48;;;;;;;3.28;1.58;;;;;;;;;;5133066;27;20051;-61
2023/06/04 14:35:15;;;;;;;2.45;1.58;;;;;;;;;;5132041;27;20051;-62
2023/06/04 14:37:42;;;;;;;4.72;2.10;;;;;;;;;;5134769;27;20074;-62
2023/06/04 14:40:09;;;;;;;2.55;1.75;;;;;;;;;;5132338;27;20051;-61
2023/06/04 14:42:36;;;;;;;3.92;1.60;;;;;;;;;;5133965;27;21749;-61
2023/06/04 14:45:03;;;;;;;2.00;1.40;;;;;;;;;;5132836;27;20047;-61
2023/06/04 14:47:30;;;;;;;2.13;1.45;;;;;;;;;;5132212;27;20055;-62